Time;durP1;ratioP1;P1;durP2;ratioP2;P2;SDS_P1;SDS_P2;PMS_P1;PMS_P2;Temp;Humidity;BMP_temperature;BMP_pressure;BME280_temperature;BME280_humidity;BME280_pressure;Samples;Min_cycle;Max_cycle;Signal;HPM_P1;HPM_P2
2022/11/24 00:01:03;;;;;;;5.80;1.60;;;;;;;18.92;44.73;100198.44;4990128;28;20038;-66
2022/11/24 00:03:28;;;;;;;5.70;1.65;;;;;;;18.89;44.64;100195.25;4984956;28;20049;-66
2022/11/24 00:05:53;;;;;;;6.85;1.58;;;;;;;18.91;44.57;100199.38;4994985;28;20037;-63
2022/11/24 00:08:19;;;;;;;5.47;1.80;;;;;;;18.89;44.54;100196.06;4999460;28;20068;-65
2022/11/24 00:10:44;;;;;;;7.80;1.65;;;;;;;18.90;44.67;100200.38;5002278;28;20390;-66
2022/11/24 00:13:09;;;;;;;5.00;1.52;;;;;;;18.85;44.59;100198.19;5003428;28;21116;-67
2022/11/24 00:15:35;;;;;;;7.78;2.08;;;;;;;18.89;44.75;100208.44;4988187;28;20053;-68
2022/11/24 00:18:00;;;;;;;4.50;1.30;;;;;;;18.81;44.54;100198.56;4988311;28;20589;-66
2022/11/24 00:20:26;;;;;;;5.97;1.40;;;;;;;18.82;44.64;100209.00;4989977;28;20057;-66
2022/11/24 00:22:51;;;;;;;4.68;1.42;;;;;;;18.83;44.37;100215.94;4983776;28;20057;-67
2022/11/24 00:25:16;;;;;;;5.72;1.75;;;;;;;18.80;44.56;100213.59;5002534;28;20053;-66
2022/11/24 00:27:41;;;;;;;3.78;1.40;;;;;;;18.80;44.29;100221.50;4992016;28;20070;-68
2022/11/24 00:30:08;;;;;;;4.35;1.50;;;;;;;18.80;44.42;100223.31;4984382;28;20141;-65
2022/11/24 00:32:34;;;;;;;4.43;1.38;;;;;;;18.79;44.46;100219.00;4983513;28;20058;-65
2022/11/24 00:34:59;;;;;;;5.05;1.73;;;;;;;18.78;44.39;100212.06;4996342;28;20076;-68
2022/11/24 00:37:24;;;;;;;4.75;1.58;;;;;;;18.77;44.52;100216.53;4983548;28;20027;-65
2022/11/24 00:39:49;;;;;;;4.70;1.42;;;;;;;18.76;44.54;100222.75;4983514;28;20030;-64
2022/11/24 00:42:15;;;;;;;5.53;1.60;;;;;;;18.78;44.45;100218.16;4983411;28;20081;-65
2022/11/24 00:44:41;;;;;;;5.15;1.60;;;;;;;18.76;44.39;100212.22;4990225;28;20066;-65
2022/11/24 00:47:06;;;;;;;5.93;1.60;;;;;;;18.74;44.19;100210.69;4987557;28;20033;-66
2022/11/24 00:49:31;;;;;;;5.40;1.50;;;;;;;18.72;44.41;100221.38;4985199;28;20030;-68
2022/11/24 00:51:57;;;;;;;5.10;1.35;;;;;;;18.71;44.33;100225.00;5002672;28;20044;-66
2022/11/24 00:54:22;;;;;;;4.13;1.40;;;;;;;18.71;44.22;100227.66;4994782;28;20104;-68
2022/11/24 00:56:48;;;;;;;4.32;1.13;;;;;;;18.69;44.48;100219.03;4992279;28;20061;-65
2022/11/24 00:59:13;;;;;;;7.05;1.60;;;;;;;18.72;44.41;100231.94;4990155;28;20117;-65
2022/11/24 01:01:38;;;;;;;5.68;1.60;;;;;;;18.71;44.40;100232.94;5002526;28;20065;-65
2022/11/24 01:04:04;;;;;;;4.80;1.40;;;;;;;18.67;44.30;100232.38;5001001;28;20042;-66
2022/11/24 01:06:31;;;;;;;4.38;1.40;;;;;;;18.70;44.23;100241.81;5001518;28;21204;-66
2022/11/24 01:08:56;;;;;;;5.53;1.38;;;;;;;18.64;44.33;100242.38;4991635;28;20088;-67
2022/11/24 01:11:27;;;;;;;4.53;1.52;;;;;;;18.62;44.22;100247.78;4991295;28;20089;-65
2022/11/24 01:13:57;;;;;;;6.05;1.70;;;;;;;18.58;44.04;100240.31;5001091;28;20474;-67
2022/11/24 01:16:30;;;;;;;5.03;1.27;;;;;;;18.66;44.16;100256.28;5005793;28;20049;-66
2022/11/24 01:18:56;;;;;;;6.18;1.40;;;;;;;18.62;44.40;100246.97;4982824;28;20173;-65
2022/11/24 01:21:22;;;;;;;6.47;1.63;;;;;;;18.64;44.16;100250.28;4984020;28;20065;-68
2022/11/24 01:23:48;;;;;;;5.60;1.50;;;;;;;18.64;44.34;100261.72;4983275;28;20478;-67
2022/11/24 01:26:16;;;;;;;5.68;1.50;;;;;;;18.58;44.31;100249.06;4992715;28;20046;-65
2022/11/24 01:28:42;;;;;;;4.25;1.40;;;;;;;18.61;44.01;100254.06;5006200;28;20243;-65
2022/11/24 01:31:07;;;;;;;4.95;1.30;;;;;;;18.62;43.86;100254.91;4994234;28;22572;-66
2022/11/24 01:33:34;;;;;;;3.92;1.42;;;;;;;18.56;43.95;100242.25;4992166;28;20857;-66
2022/11/24 01:36:01;;;;;;;6.05;1.50;;;;;;;18.58;44.27;100245.59;4982917;28;20863;-65
2022/11/24 01:38:27;;;;;;;4.50;1.27;;;;;;;18.57;44.14;100262.41;4995365;28;20038;-65
2022/11/24 01:41:01;;;;;;;5.60;1.50;;;;;;;18.60;44.15;100259.50;4988803;28;20048;-65
2022/11/24 01:43:27;;;;;;;;;;;;;;;18.65;44.11;100270.44;4991790;28;20065;-65
2022/11/24 01:45:53;;;;;;;4.93;1.38;;;;;;;18.59;44.07;100273.66;4987787;28;19957;-65
2022/11/24 01:48:31;;;;;;;5.45;1.63;;;;;;;18.58;44.19;100272.81;4998715;28;20030;-65
2022/11/24 01:51:09;;;;;;;5.35;1.40;;;;;;;18.58;43.94;100277.25;4992455;28;20068;-64
2022/11/24 01:53:34;;;;;;;5.18;1.45;;;;;;;18.56;43.76;100276.56;4990541;28;20065;-66
2022/11/24 01:56:00;;;;;;;5.88;1.40;;;;;;;18.56;43.82;100271.28;4991263;28;20069;-67
2022/11/24 01:58:31;;;;;;;7.07;1.55;;;;;;;18.54;43.85;100281.16;4988048;28;20038;-67
2022/11/24 02:00:56;;;;;;;4.30;1.48;;;;;;;18.46;43.99;100269.50;4989096;28;20042;-65
2022/11/24 02:03:26;;;;;;;6.03;1.42;;;;;;;18.51;44.33;100287.53;4990180;28;20112;-65
2022/11/24 02:06:01;;;;;;;5.70;1.50;;;;;;;18.53;44.21;100288.22;4991058;28;20971;-66
2022/11/24 02:08:42;;;;;;;6.30;1.88;;;;;;;18.51;44.13;100287.53;4985794;28;20422;-65
2022/11/24 02:11:08;;;;;;;5.65;1.30;;;;;;;18.52;44.19;100296.28;4992816;28;20046;-65
2022/11/24 02:13:35;;;;;;;4.05;1.17;;;;;;;18.52;44.02;100302.41;4994614;28;20034;-63
2022/11/24 02:16:02;;;;;;;6.30;1.88;;;;;;;18.49;43.98;100298.25;4997531;28;20049;-65
2022/11/24 02:18:28;;;;;;;5.47;1.55;;;;;;;18.49;44.22;100294.78;4991284;28;20029;-66
2022/11/24 02:20:54;;;;;;;5.55;1.52;;;;;;;18.49;44.27;100300.06;4988094;28;20030;-67
2022/11/24 02:23:26;;;;;;;6.53;1.73;;;;;;;18.48;43.94;100304.50;4990931;28;20541;-66
2022/11/24 02:26:04;;;;;;;4.78;1.40;;;;;;;18.52;44.05;100312.13;5006470;28;21073;-64
2022/11/24 02:28:30;;;;;;;4.57;1.67;;;;;;;18.52;44.10;100306.84;4981912;28;20053;-64
2022/11/24 02:30:57;;;;;;;4.90;1.20;;;;;;;18.47;43.96;100299.38;4983196;28;20038;-65
2022/11/24 02:33:24;;;;;;;5.05;1.48;;;;;;;18.49;43.83;100308.78;4981793;28;20046;-64
2022/11/24 02:35:50;;;;;;;5.18;1.50;;;;;;;18.47;43.90;100307.28;4989700;28;20049;-64
2022/11/24 02:38:15;;;;;;;4.65;1.67;;;;;;;18.46;43.89;100314.34;4994334;28;20462;-67
2022/11/24 02:40:46;;;;;;;4.20;1.30;;;;;;;18.44;44.12;100318.94;4999998;28;20025;-64
2022/11/24 02:43:16;;;;;;;5.07;1.50;;;;;;;18.46;44.00;100324.06;4995726;28;20404;-64
2022/11/24 02:45:41;;;;;;;5.57;1.50;;;;;;;18.47;43.80;100325.75;4990290;28;20030;-66
2022/11/24 02:48:06;;;;;;;3.97;1.13;;;;;;;18.45;44.09;100317.13;4985389;28;20044;-65
2022/11/24 02:50:32;;;;;;;6.90;1.50;;;;;;;18.44;43.88;100318.94;5000454;28;20445;-66
2022/11/24 02:52:57;;;;;;;4.57;1.65;;;;;;;18.45;44.00;100314.47;4998508;28;20037;-65
2022/11/24 02:55:22;;;;;;;4.28;1.35;;;;;;;18.46;43.90;100330.19;4980804;28;20034;-65
2022/11/24 02:57:48;;;;;;;5.40;1.40;;;;;;;18.45;43.97;100319.75;4999997;28;20036;-64
2022/11/24 03:00:14;;;;;;;5.13;1.50;;;;;;;18.45;43.95;100330.31;4987063;28;20034;-65
2022/11/24 03:02:39;;;;;;;4.97;1.38;;;;;;;18.44;43.83;100332.13;4982852;28;20089;-66
2022/11/24 03:05:05;;;;;;;4.75;1.38;;;;;;;18.42;43.97;100327.94;4995621;28;20458;-67
2022/11/24 03:07:30;;;;;;;6.93;1.35;;;;;;;18.43;43.73;100341.00;4985232;28;20088;-64
2022/11/24 03:09:56;;;;;;;6.03;1.70;;;;;;;18.41;43.69;100335.03;4993696;28;20030;-65
2022/11/24 03:12:21;;;;;;;4.13;1.25;;;;;;;18.41;44.04;100337.69;4993073;28;20038;-66
2022/11/24 03:14:46;;;;;;;4.28;1.30;;;;;;;18.42;43.96;100344.63;5001862;28;20026;-66
2022/11/24 03:17:12;;;;;;;6.53;1.70;;;;;;;18.33;44.01;100336.72;4991119;28;20042;-67
2022/11/24 03:19:37;;;;;;;5.85;1.30;;;;;;;18.37;43.63;100338.91;4995545;28;20034;-66
2022/11/24 03:22:02;;;;;;;5.25;1.55;;;;;;;18.39;44.07;100344.06;4990731;28;20107;-69
2022/11/24 03:24:28;;;;;;;7.18;1.90;;;;;;;18.40;43.94;100349.19;4991764;28;20034;-69
2022/11/24 03:26:53;;;;;;;4.80;1.27;;;;;;;18.37;44.12;100351.28;5005408;28;20466;-66
2022/11/24 03:29:19;;;;;;;4.72;1.42;;;;;;;18.38;44.00;100345.88;4974962;28;20026;-69
2022/11/24 03:31:44;;;;;;;4.95;1.52;;;;;;;18.35;44.06;100343.50;4985559;28;20054;-64
2022/11/24 03:34:09;;;;;;;5.20;1.40;;;;;;;18.37;44.06;100354.75;4989433;28;20026;-68
2022/11/24 03:36:35;;;;;;;5.43;1.83;;;;;;;18.36;43.88;100349.59;4992483;28;20034;-66
2022/11/24 03:39:01;;;;;;;4.82;1.52;;;;;;;18.34;44.11;100347.13;4990040;28;20390;-69
2022/11/24 03:41:26;;;;;;;6.28;1.60;;;;;;;18.36;44.02;100354.88;4984427;28;20034;-66
2022/11/24 03:43:52;;;;;;;6.50;1.60;;;;;;;18.36;44.08;100355.75;4999207;28;20056;-66
2022/11/24 03:46:17;;;;;;;6.82;1.40;;;;;;;18.34;44.13;100341.88;5000122;28;20037;-66
2022/11/24 03:48:42;;;;;;;5.13;1.52;;;;;;;18.34;44.00;100352.41;5004137;28;20574;-67
2022/11/24 03:51:09;;;;;;;4.07;1.30;;;;;;;18.37;43.94;100351.28;4991094;28;20038;-66
2022/11/24 03:53:34;;;;;;;4.75;1.63;;;;;;;18.37;44.15;100357.38;5002474;28;20041;-69
2022/11/24 03:56:01;;;;;;;5.80;1.40;;;;;;;18.36;43.95;100354.88;5000479;28;20043;-65
2022/11/24 03:58:26;;;;;;;5.72;1.92;;;;;;;18.26;44.21;100346.97;4993255;28;20037;-66
2022/11/24 04:00:53;;;;;;;5.38;1.55;;;;;;;18.32;43.87;100351.69;5003753;28;20095;-67
2022/11/24 04:03:19;;;;;;;5.95;1.63;;;;;;;18.31;44.00;100348.25;4999655;28;20397;-66
2022/11/24 04:05:45;;;;;;;4.55;1.48;;;;;;;18.34;43.85;100349.78;5003596;28;20030;-67
2022/11/24 04:08:10;;;;;;;5.45;1.58;;;;;;;18.30;44.06;100357.09;4993494;28;20978;-67
2022/11/24 04:10:37;;;;;;;5.50;1.50;;;;;;;18.33;43.88;100371.03;5003492;28;20042;-66
2022/11/24 04:13:04;;;;;;;5.57;1.80;;;;;;;18.30;44.04;100367.66;4985165;28;20037;-66
2022/11/24 04:15:29;;;;;;;4.90;1.60;;;;;;;18.29;44.32;100371.28;4991683;28;20038;-66
2022/11/24 04:17:55;;;;;;;6.15;1.50;;;;;;;18.31;43.97;100392.25;4986838;28;20049;-66
2022/11/24 04:20:21;;;;;;;5.90;1.73;;;;;;;18.31;44.22;100395.72;4983660;28;20030;-64
2022/11/24 04:22:48;;;;;;;5.97;1.70;;;;;;;18.30;44.05;100396.69;4988022;28;20042;-67
2022/11/24 04:25:16;;;;;;;4.88;1.58;;;;;;;18.31;44.12;100401.00;4985830;28;20030;-64
2022/11/24 04:27:42;;;;;;;5.50;1.35;;;;;;;18.29;43.95;100407.38;4998241;28;20037;-64
2022/11/24 04:30:07;;;;;;;5.90;1.55;;;;;;;18.27;43.84;100399.59;4985067;28;20104;-66
2022/11/24 04:32:32;;;;;;;3.83;1.45;;;;;;;18.28;43.75;100411.81;4974614;28;20108;-65
2022/11/24 04:34:58;;;;;;;5.32;1.42;;;;;;;18.25;44.16;100406.81;4999517;28;20928;-66
2022/11/24 04:37:23;;;;;;;7.77;1.77;;;;;;;18.28;44.08;100419.72;4991031;28;20037;-65
2022/11/24 04:39:48;;;;;;;5.78;1.90;;;;;;;18.28;44.12;100406.53;5003092;28;20271;-64
2022/11/24 04:42:14;;;;;;;5.32;1.35;;;;;;;18.25;43.98;100414.72;4984196;28;20056;-64
2022/11/24 04:44:39;;;;;;;6.15;1.80;;;;;;;18.27;44.11;100415.41;4997173;28;20030;-66
2022/11/24 04:47:05;;;;;;;6.13;1.55;;;;;;;18.26;43.95;100420.81;4989082;28;20034;-67
2022/11/24 04:49:30;;;;;;;5.55;1.30;;;;;;;18.28;44.04;100427.66;5000464;28;20117;-66
2022/11/24 04:51:56;;;;;;;4.55;1.30;;;;;;;18.24;44.02;100418.31;4995259;28;20026;-65
2022/11/24 04:54:21;;;;;;;3.97;1.35;;;;;;;18.26;43.90;100423.47;4999405;28;20040;-66
2022/11/24 04:56:50;;;;;;;5.20;1.45;;;;;;;18.23;44.11;100424.59;4998967;28;20435;-67
2022/11/24 04:59:17;;;;;;;6.35;1.30;;;;;;;18.26;43.99;100428.75;4987217;28;20062;-68
2022/11/24 05:01:43;;;;;;;6.40;1.52;;;;;;;18.26;43.99;100426.94;4984984;28;20031;-65
2022/11/24 05:04:10;;;;;;;5.15;1.50;;;;;;;18.21;43.79;100426.50;4999243;28;20109;-66
2022/11/24 05:06:36;;;;;;;4.93;1.70;;;;;;;18.25;44.05;100429.72;4988370;28;20030;-67
2022/11/24 05:09:01;;;;;;;3.95;1.17;;;;;;;18.25;44.20;100427.91;5002463;28;20045;-66
2022/11/24 05:11:26;;;;;;;5.28;1.33;;;;;;;18.25;43.87;100433.19;4992091;28;20038;-66
2022/11/24 05:13:52;;;;;;;6.27;1.50;;;;;;;18.24;44.19;100434.16;4984938;28;20073;-66
2022/11/24 05:16:17;;;;;;;5.13;1.38;;;;;;;18.22;44.00;100432.63;4981550;28;20271;-66
2022/11/24 05:18:43;;;;;;;4.05;1.10;;;;;;;18.25;43.85;100445.56;4995524;28;20469;-65
2022/11/24 05:21:08;;;;;;;5.57;1.50;;;;;;;18.22;43.97;100446.66;4988877;28;20058;-64
2022/11/24 05:23:33;;;;;;;5.28;1.42;;;;;;;18.22;44.18;100440.53;4996442;28;20042;-65
2022/11/24 05:26:00;;;;;;;3.42;1.20;;;;;;;18.22;44.28;100445.81;4989650;28;20030;-64
2022/11/24 05:28:25;;;;;;;4.10;1.17;;;;;;;18.22;44.41;100451.91;4998865;28;20037;-66
2022/11/24 05:30:50;;;;;;;3.85;1.33;;;;;;;18.20;44.10;100445.94;4991836;28;20030;-66
2022/11/24 05:33:17;;;;;;;4.32;1.40;;;;;;;18.19;44.36;100444.28;4996925;28;20435;-68
2022/11/24 05:35:43;;;;;;;4.53;1.40;;;;;;;18.20;44.30;100458.28;4989931;28;20031;-68
2022/11/24 05:38:09;;;;;;;4.93;1.40;;;;;;;18.18;44.24;100453.16;4991292;28;20029;-67
2022/11/24 05:40:34;;;;;;;4.97;1.30;;;;;;;18.19;43.91;100459.28;4991309;28;20078;-67
2022/11/24 05:42:59;;;;;;;4.93;1.67;;;;;;;18.19;43.96;100461.91;4986144;28;20885;-66
2022/11/24 05:45:25;;;;;;;3.75;1.30;;;;;;;18.17;44.12;100461.22;4989695;28;20031;-65
2022/11/24 05:47:50;;;;;;;4.20;1.27;;;;;;;18.21;43.96;100473.16;4997889;28;20617;-64
2022/11/24 05:50:18;;;;;;;4.00;1.38;;;;;;;18.20;44.38;100471.47;4996872;28;20041;-65
2022/11/24 05:52:44;;;;;;;5.13;1.45;;;;;;;18.19;44.37;100475.91;4994003;28;20845;-64
2022/11/24 05:55:13;;;;;;;4.25;1.30;;;;;;;18.18;44.14;100481.34;4989684;28;20030;-68
2022/11/24 05:57:38;;;;;;;6.25;1.65;;;;;;;18.17;43.98;100484.97;4987759;28;20037;-69
2022/11/24 06:00:06;;;;;;;4.22;1.27;;;;;;;18.17;43.99;100491.06;4994611;28;20143;-65
2022/11/24 06:02:31;;;;;;;4.55;1.10;;;;;;;18.18;43.95;100499.78;4994706;28;20023;-65
2022/11/24 06:04:57;;;;;;;4.97;1.40;;;;;;;18.19;44.06;100502.31;4991475;28;20068;-66
2022/11/24 06:07:22;;;;;;;5.25;1.45;;;;;;;18.18;44.30;100511.16;4995028;28;20088;-67
2022/11/24 06:09:47;;;;;;;5.13;1.40;;;;;;;18.20;44.18;100516.31;4992647;28;20038;-67
2022/11/24 06:12:13;;;;;;;4.13;1.45;;;;;;;18.18;44.25;100515.63;4987123;28;20042;-64
2022/11/24 06:14:38;;;;;;;3.40;1.00;;;;;;;18.19;44.32;100518.13;5016045;28;20036;-63
2022/11/24 06:17:04;;;;;;;3.30;1.00;;;;;;;18.23;44.45;100524.81;4995400;28;20066;-64
2022/11/24 06:19:30;;;;;;;4.15;1.00;;;;;;;18.26;44.46;100524.56;4987838;28;20042;-64
2022/11/24 06:21:55;;;;;;;2.40;0.93;;;;;;;18.29;44.48;100534.84;4989377;28;20102;-64
2022/11/24 06:24:20;;;;;;;4.50;1.13;;;;;;;18.30;44.12;100535.66;4992393;28;20045;-66
2022/11/24 06:26:46;;;;;;;5.00;1.10;;;;;;;18.37;44.47;100546.50;4998079;28;20538;-66
2022/11/24 06:29:11;;;;;;;6.22;1.52;;;;;;;18.42;44.45;100558.34;4984939;28;20280;-65
2022/11/24 06:31:36;;;;;;;3.55;1.05;;;;;;;18.46;44.18;100559.72;4996438;28;20053;-64
2022/11/24 06:34:10;;;;;;;4.63;1.50;;;;;;;18.48;44.16;100560.47;4996161;28;20030;-64
2022/11/24 06:36:35;;;;;;;5.07;1.20;;;;;;;18.51;44.00;100559.34;4981715;28;20052;-68
2022/11/24 06:39:02;;;;;;;3.15;1.00;;;;;;;18.47;43.87;100547.41;4990596;28;20046;-66
2022/11/24 06:41:28;;;;;;;3.70;1.00;;;;;;;18.59;44.00;100580.59;4993537;28;20427;-65
2022/11/24 06:43:53;;;;;;;3.50;1.10;;;;;;;18.60;43.93;100589.38;4990402;28;20034;-65
2022/11/24 06:46:19;;;;;;;2.87;1.13;;;;;;;18.59;44.00;100587.69;4986344;28;20030;-67
2022/11/24 06:48:44;;;;;;;4.57;1.05;;;;;;;18.60;44.13;100590.22;4984223;28;20344;-65
2022/11/24 06:51:14;;;;;;;3.35;0.90;;;;;;;18.63;44.13;100595.22;4991074;28;20078;-66
2022/11/24 06:53:40;;;;;;;3.60;1.00;;;;;;;18.67;44.02;100607.19;4990138;28;20461;-66
2022/11/24 06:56:08;;;;;;;4.75;1.17;;;;;;;18.66;43.81;100608.16;4983387;28;20165;-66
2022/11/24 06:58:33;;;;;;;3.47;0.93;;;;;;;18.70;43.82;100610.53;4994371;28;20050;-66
2022/11/24 07:00:58;;;;;;;3.63;1.35;;;;;;;18.76;43.84;100615.28;5000972;28;20034;-67
2022/11/24 07:03:24;;;;;;;6.35;1.15;;;;;;;18.74;43.88;100617.19;4997743;28;20038;-65
2022/11/24 07:05:55;;;;;;;2.88;1.00;;;;;;;18.76;43.75;100626.66;4996813;28;20037;-65
2022/11/24 07:08:21;;;;;;;3.13;0.98;;;;;;;18.79;43.84;100638.78;4993553;28;20470;-65
2022/11/24 07:10:46;;;;;;;3.70;1.02;;;;;;;18.78;44.03;100639.72;4994180;28;20045;-64
2022/11/24 07:13:11;;;;;;;3.77;1.10;;;;;;;18.78;43.74;100651.13;4994375;28;20038;-67
2022/11/24 07:15:36;;;;;;;3.07;0.83;;;;;;;18.78;43.64;100652.94;4991367;28;20314;-65
2022/11/24 07:18:02;;;;;;;4.25;1.10;;;;;;;18.82;43.87;100664.91;4988376;28;20282;-64
2022/11/24 07:20:27;;;;;;;4.07;1.00;;;;;;;18.80;43.75;100672.97;4996373;28;20390;-66
2022/11/24 07:22:56;;;;;;;3.45;1.10;;;;;;;18.80;43.96;100670.31;5000504;28;20045;-65
2022/11/24 07:25:23;;;;;;;2.42;0.85;;;;;;;18.78;43.70;100674.88;4992807;28;20390;-66
2022/11/24 07:27:48;;;;;;;3.17;0.95;;;;;;;18.79;43.76;100673.09;4971313;28;20368;-64
2022/11/24 07:30:13;;;;;;;3.33;0.95;;;;;;;18.81;43.76;100684.34;4996619;28;20061;-64
2022/11/24 07:32:38;;;;;;;2.92;0.82;;;;;;;18.81;43.97;100690.44;4989378;28;20062;-64
2022/11/24 07:35:04;;;;;;;5.37;1.00;;;;;;;18.70;43.75;100674.72;4993751;28;20073;-65
2022/11/24 07:37:30;;;;;;;2.80;0.82;;;;;;;18.76;44.07;100692.66;4981251;28;20277;-64
2022/11/24 07:39:55;;;;;;;3.53;0.80;;;;;;;18.78;43.87;100698.63;4983742;28;20471;-67
2022/11/24 07:42:20;;;;;;;3.13;0.90;;;;;;;18.79;44.06;100700.31;4998763;28;20514;-63
2022/11/24 07:44:45;;;;;;;3.78;1.05;;;;;;;18.80;44.08;100701.16;4998682;28;20026;-66
2022/11/24 07:47:11;;;;;;;3.17;0.85;;;;;;;18.79;44.23;100704.78;4992208;28;20038;-64
2022/11/24 07:49:36;;;;;;;4.25;1.38;;;;;;;18.78;44.54;100711.84;4982980;28;20506;-65
2022/11/24 07:52:01;;;;;;;3.20;0.80;;;;;;;18.79;44.43;100710.06;4999807;28;20084;-65
2022/11/24 07:54:27;;;;;;;3.35;0.93;;;;;;;18.79;44.36;100724.09;4998528;28;20284;-65
2022/11/24 07:56:52;;;;;;;2.95;0.80;;;;;;;18.77;44.54;100719.88;5003727;28;20455;-64
2022/11/24 07:59:17;;;;;;;3.33;0.97;;;;;;;18.76;44.61;100724.34;4996168;28;20037;-65
2022/11/24 08:01:42;;;;;;;4.88;1.00;;;;;;;18.78;44.85;100732.97;4991521;28;20271;-67
2022/11/24 08:04:08;;;;;;;3.33;0.90;;;;;;;18.79;44.77;100739.91;4997423;28;20045;-67
2022/11/24 08:06:33;;;;;;;3.47;1.00;;;;;;;18.80;44.84;100746.03;4984358;28;20267;-64
2022/11/24 08:08:59;;;;;;;4.00;1.30;;;;;;;18.78;44.88;100743.50;4984346;28;20272;-67
2022/11/24 08:11:25;;;;;;;7.38;1.20;;;;;;;18.78;44.70;100746.16;4998370;28;20135;-64
2022/11/24 08:13:50;;;;;;;2.72;0.80;;;;;;;18.71;44.68;100736.25;4984946;28;20045;-64
2022/11/24 08:16:17;;;;;;;5.93;1.02;;;;;;;18.78;44.45;100743.50;4994337;28;20038;-63
2022/11/24 08:18:48;;;;;;;4.00;0.80;;;;;;;18.78;44.47;100762.00;4986164;28;20515;-65
2022/11/24 08:21:13;;;;;;;4.00;1.10;;;;;;;18.81;44.86;100761.75;4984073;28;20054;-63
2022/11/24 08:23:39;;;;;;;3.65;1.00;;;;;;;18.83;45.09;100775.66;4984067;28;20938;-67
2022/11/24 08:26:08;;;;;;;3.88;0.80;;;;;;;18.80;45.07;100775.06;5000947;28;20136;-67
2022/11/24 08:28:34;;;;;;;3.67;1.23;;;;;;;18.83;45.18;100778.31;5003001;28;20037;-66
2022/11/24 08:31:05;;;;;;;2.95;0.70;;;;;;;18.80;45.26;100775.94;5002833;28;20045;-66
2022/11/24 08:33:30;;;;;;;4.88;1.10;;;;;;;18.81;45.24;100772.28;4991928;28;20113;-67
2022/11/24 08:36:01;;;;;;;3.10;0.80;;;;;;;18.75;45.48;100772.00;4991653;28;20130;-66
2022/11/24 08:38:26;;;;;;;3.00;0.90;;;;;;;18.83;45.26;100790.66;4988624;28;20033;-66
2022/11/24 08:40:52;;;;;;;3.22;0.80;;;;;;;18.84;45.31;100798.47;4996894;28;20037;-65
2022/11/24 08:43:17;;;;;;;1.97;0.70;;;;;;;18.84;45.58;100797.66;4992207;28;20128;-67
2022/11/24 08:45:42;;;;;;;3.23;0.90;;;;;;;18.84;45.56;100802.94;4999907;28;20287;-65
2022/11/24 08:48:08;;;;;;;3.57;1.03;;;;;;;18.84;45.64;100810.84;5001670;28;20314;-65
2022/11/24 08:50:34;;;;;;;4.38;0.85;;;;;;;18.88;45.62;100814.06;4987292;28;20280;-69
2022/11/24 08:52:59;;;;;;;3.47;0.90;;;;;;;18.88;45.12;100819.34;4985845;28;20034;-67
2022/11/24 08:55:24;;;;;;;4.82;0.90;;;;;;;18.89;45.25;100823.66;4983165;28;20095;-66
2022/11/24 08:57:50;;;;;;;2.50;0.80;;;;;;;18.84;45.16;100827.53;4996914;28;20021;-68
2022/11/24 09:00:21;;;;;;;2.77;0.80;;;;;;;18.87;45.27;100836.13;4987026;28;20286;-66
2022/11/24 09:02:52;;;;;;;5.45;1.10;;;;;;;18.83;45.39;100831.13;4982628;28;20688;-67
2022/11/24 09:05:17;;;;;;;3.10;0.85;;;;;;;18.81;45.17;100842.75;4998840;28;20034;-68
2022/11/24 09:07:43;;;;;;;3.10;1.03;;;;;;;18.81;44.66;100843.59;4996317;28;20041;-69
2022/11/24 09:10:08;;;;;;;3.07;1.00;;;;;;;18.80;45.00;100841.94;4997376;28;20318;-65
2022/11/24 09:12:33;;;;;;;3.60;0.90;;;;;;;18.79;45.07;100848.16;4986790;28;20346;-67
2022/11/24 09:14:59;;;;;;;3.63;0.70;;;;;;;18.83;45.05;100854.03;4985764;28;20030;-65
2022/11/24 09:17:24;;;;;;;3.40;0.90;;;;;;;18.80;44.79;100844.56;4999173;28;20038;-66
2022/11/24 09:19:49;;;;;;;4.47;1.02;;;;;;;18.82;45.07;100847.91;4997837;28;20030;-67
2022/11/24 09:22:14;;;;;;;2.90;0.83;;;;;;;18.79;44.87;100858.72;4995987;28;20049;-69
2022/11/24 09:24:40;;;;;;;4.80;0.90;;;;;;;18.80;44.92;100863.06;4993581;28;20255;-69
2022/11/24 09:27:05;;;;;;;4.22;0.95;;;;;;;18.78;44.68;100862.31;4994822;28;20437;-69
2022/11/24 09:29:30;;;;;;;3.90;1.00;;;;;;;18.78;44.96;100872.88;5001348;28;20123;-65
2022/11/24 09:31:56;;;;;;;4.17;1.00;;;;;;;18.82;44.69;100873.50;5001864;28;20291;-66
2022/11/24 09:34:21;;;;;;;5.20;1.08;;;;;;;18.81;44.86;100879.72;5001874;28;20731;-64
2022/11/24 09:36:46;;;;;;;5.57;1.53;;;;;;;18.81;45.44;100874.44;4991601;28;20065;-64
2022/11/24 09:39:11;;;;;;;3.53;1.00;;;;;;;18.83;44.95;100873.38;4986211;28;20315;-67
2022/11/24 09:41:47;;;;;;;4.47;1.10;;;;;;;18.88;45.30;100880.91;4973501;28;20308;-65
2022/11/24 09:44:31;;;;;;;9.30;1.10;;;;;;;18.93;45.06;100885.78;4996673;28;20052;-67
2022/11/24 09:47:33;;;;;;;5.03;0.98;;;;;;;18.95;44.88;100894.44;4995038;28;20038;-65
2022/11/24 09:50:08;;;;;;;5.07;1.10;;;;;;;18.94;45.19;100893.59;4996431;28;20410;-67
2022/11/24 09:52:41;;;;;;;3.95;0.90;;;;;;;18.85;45.03;100892.56;4984757;28;20034;-67
2022/11/24 09:55:38;;;;;;;6.10;1.10;;;;;;;18.96;45.05;100911.94;4999125;28;20061;-68
2022/11/24 09:58:12;;;;;;;6.63;1.35;;;;;;;18.95;45.03;100907.66;4964345;28;20106;-66
2022/11/24 10:00:38;;;;;;;4.20;0.90;;;;;;;18.93;45.24;100909.56;4982830;28;20065;-65
2022/11/24 10:03:04;;;;;;;3.30;1.10;;;;;;;18.95;45.08;100912.94;5001515;28;20045;-65
2022/11/24 10:05:34;;;;;;;5.85;1.15;;;;;;;18.90;45.27;100901.91;4998728;28;20494;-67
2022/11/24 10:08:16;;;;;;;4.82;1.10;;;;;;;18.93;45.27;100923.63;5000777;28;20040;-63
2022/11/24 10:10:53;;;;;;;4.43;1.20;;;;;;;18.90;44.95;100918.59;4982161;28;20036;-68
2022/11/24 10:13:48;;;;;;;4.00;1.25;;;;;;;18.93;45.26;100920.13;4994705;28;20417;-65
2022/11/24 10:16:19;;;;;;;3.85;1.02;;;;;;;18.96;45.11;100931.28;4985203;28;20030;-67
2022/11/24 10:19:30;;;;;;;3.78;1.08;;;;;;;18.96;45.29;100935.72;4999265;28;20034;-65
2022/11/24 10:22:38;;;;;;;4.60;1.25;;;;;;;18.97;45.10;100937.41;4986921;28;20403;-67
2022/11/24 10:25:17;;;;;;;5.53;1.38;;;;;;;18.93;44.89;100939.47;4984959;28;20029;-64
2022/11/24 10:27:46;;;;;;;3.70;1.10;;;;;;;18.92;45.26;100937.78;4985131;28;20531;-61
2022/11/24 10:30:22;;;;;;;7.13;1.50;;;;;;;18.95;45.18;100937.53;4996552;28;20044;-64
2022/11/24 10:32:56;;;;;;;5.15;1.40;;;;;;;18.96;45.22;100956.84;5001140;28;20062;-63
2022/11/24 10:35:29;;;;;;;5.43;1.20;;;;;;;18.99;45.50;100961.88;5000963;28;20049;-63
2022/11/24 10:38:06;;;;;;;3.80;1.13;;;;;;;19.01;45.40;100959.97;4989900;28;20029;-61
2022/11/24 10:40:40;;;;;;;4.78;1.00;;;;;;;18.97;45.38;100953.25;4989849;28;20038;-62
2022/11/24 10:43:09;;;;;;;3.67;0.88;;;;;;;18.97;45.49;100948.81;4987687;28;20042;-61
2022/11/24 10:45:38;;;;;;;4.43;1.10;;;;;;;18.99;45.54;100949.53;5001038;28;20135;-63
2022/11/24 10:48:06;;;;;;;6.65;1.00;;;;;;;18.98;45.29;100958.41;5000996;28;20059;-62
2022/11/24 10:50:35;;;;;;;3.83;1.30;;;;;;;18.98;45.54;100954.94;4998274;28;20660;-64
2022/11/24 10:53:26;;;;;;;6.00;1.10;;;;;;;18.98;45.20;100949.66;4989901;28;20205;-66
2022/11/24 10:55:55;;;;;;;5.25;1.00;;;;;;;18.98;45.48;100949.66;4992660;28;20076;-64
2022/11/24 10:58:24;;;;;;;4.70;1.08;;;;;;;18.99;45.62;100957.47;4987152;28;20048;-67
2022/11/24 11:00:50;;;;;;;5.43;1.23;;;;;;;19.01;45.66;100952.03;4984385;28;20040;-66
2022/11/24 11:03:44;;;;;;;4.40;0.90;;;;;;;19.04;46.11;100951.75;4982365;28;20034;-67
2022/11/24 11:06:11;;;;;;;4.65;1.05;;;;;;;19.03;45.82;100950.94;4997924;28;20271;-67
2022/11/24 11:08:37;;;;;;;5.18;1.50;;;;;;;19.04;45.88;100951.75;4996703;28;20398;-65
2022/11/24 11:11:19;;;;;;;5.25;1.40;;;;;;;19.04;46.24;100949.13;4983998;28;20120;-64
2022/11/24 11:13:54;;;;;;;6.22;1.30;;;;;;;19.07;46.33;100948.88;4998291;28;20073;-66
2022/11/24 11:16:50;;;;;;;5.35;1.17;;;;;;;19.10;46.02;100951.25;4983223;28;20034;-64
2022/11/24 11:19:37;;;;;;;4.78;0.93;;;;;;;19.09;45.89;100946.97;4981027;28;20041;-65
2022/11/24 11:22:13;;;;;;;4.32;1.23;;;;;;;19.05;45.87;100940.25;4982414;28;20045;-66
2022/11/24 11:24:41;;;;;;;5.60;1.00;;;;;;;19.09;45.99;100949.59;4990631;28;20038;-65
2022/11/24 11:27:21;;;;;;;5.18;1.45;;;;;;;19.09;45.72;100954.03;4997274;28;20076;-65